Overgaard, Arizona
Current Conditions -  °F | °C
As of 5:15 PM on Sunday 25 Jan 2015 (Local Time) from KSOW Reporting Station
Clear Clear  
Wind Chill: 40°   Ceiling: Unl
Heat Index: 45°   Visibility: 10mi
Dew Point: 19°   Wind: 9mph
Humidity: 37%   Direction: 360°N
Pressure: 30.3"   Gusts: NA
Location:  34.39°N, 110.55°W
Report Text: KSOW 260015Z AUTO 36008KT 10SM CLR 07/M07 A3030 RMK AO2
Loading
Personal Weather Stations






























Interactive Weather Map New forecast layout! Learn more

10-Day Weather Forecast

Advertisements
Track Severe Weather on mobile